Time;durP1;ratioP1;P1;durP2;ratioP2;P2;SDS_P1;SDS_P2;PMS_P1;PMS_P2;Temp;Humidity;BMP_temperature;BMP_pressure;BME280_temperature;BME280_humidity;BME280_pressure;Samples;Min_cycle;Max_cycle;Signal;HPM_P1;HPM_P2
2022/01/07 00:00:54;;;;;;;15.17;10.30;;;;;;;-0.13;73.69;99464.09;5032023;28;20203;-70
2022/01/07 02:05:33;;;;;;;9.80;6.70;;;;;;;2.82;60.24;99357.81;5055762;28;20235;-69
2022/01/07 02:08:00;;;;;;;9.50;6.73;;;;;;;2.83;61.12;99373.50;5060741;28;20687;-68
2022/01/07 02:10:27;;;;;;;8.33;6.47;;;;;;;2.50;61.19;99359.59;5045169;28;20240;-69
2022/01/07 02:12:54;;;;;;;15.87;7.20;;;;;;;2.69;61.02;99365.94;5043832;28;20234;-69
2022/01/07 02:15:21;;;;;;;10.87;6.57;;;;;;;2.82;60.89;99373.63;5048643;28;20599;-69
2022/01/07 02:17:50;;;;;;;8.97;6.23;;;;;;;2.29;61.86;99377.16;5046045;28;20221;-68
2022/01/07 02:20:20;;;;;;;11.83;7.67;;;;;;;2.78;61.68;99382.75;5046391;28;20736;-69
2022/01/07 02:22:47;;;;;;;11.70;6.53;;;;;;;2.12;62.07;99378.56;5032298;28;20231;-69
2022/01/07 02:25:14;;;;;;;12.50;6.23;;;;;;;2.11;62.32;99382.19;5032055;28;20430;-69
2022/01/07 02:27:43;;;;;;;11.70;6.93;;;;;;;2.03;62.84;99392.50;5027519;28;20516;-69
2022/01/07 02:30:17;;;;;;;15.53;7.33;;;;;;;2.39;61.92;99372.81;5028768;28;20419;-69
2022/01/07 02:33:59;;;;;;;8.67;6.50;;;;;;;1.83;62.90;99378.34;5024465;28;20197;-69
2022/01/07 02:37:41;;;;;;;13.17;7.17;;;;;;;2.55;62.18;99385.53;5033181;28;20174;-69
2022/01/07 02:41:23;;;;;;;11.33;6.43;;;;;;;2.34;62.19;99361.00;5025394;28;20217;-69
2022/01/07 02:45:08;;;;;;;11.27;6.80;;;;;;;1.90;62.21;99356.69;5022472;28;20265;-69
2022/01/07 02:48:49;;;;;;;10.20;6.37;;;;;;;2.07;62.89;99360.56;5025453;28;20197;-69
2022/01/07 02:52:31;;;;;;;9.87;6.83;;;;;;;1.12;65.98;99411.03;5035759;28;20766;-69
2022/01/07 02:56:11;;;;;;;13.43;6.07;;;;;;;-1.08;71.81;99336.25;5022321;28;20266;-69
2022/01/07 02:59:52;;;;;;;9.73;6.60;;;;;;;-1.42;73.44;99343.81;5027099;28;20532;-69
2022/01/07 03:03:34;;;;;;;10.10;6.90;;;;;;;-1.70;74.94;99347.44;5025995;28;20985;-69
2022/01/07 03:07:15;;;;;;;10.73;6.67;;;;;;;-1.70;75.03;99341.38;5022958;28;20645;-69
2022/01/07 03:10:56;;;;;;;9.00;6.07;;;;;;;-1.65;74.82;99360.22;5030106;28;20186;-69
2022/01/07 03:14:38;;;;;;;9.27;7.07;;;;;;;-1.52;73.59;99352.38;5028180;28;20273;-69
2022/01/07 03:18:19;;;;;;;8.53;6.37;;;;;;;-1.41;73.25;99369.00;5036372;28;20184;-68
2022/01/07 03:22:01;;;;;;;10.83;6.53;;;;;;;-1.24;72.22;99373.09;5022902;28;20197;-68
2022/01/07 03:25:46;;;;;;;11.50;7.27;;;;;;;1.86;64.54;99321.06;5033361;28;20192;-69
2022/01/07 03:29:28;;;;;;;12.20;7.80;;;;;;;0.01;71.28;99406.22;5025466;28;20190;-69
2022/01/07 03:33:09;;;;;;;13.17;9.17;;;;;;;-0.99;71.92;99353.09;5025629;28;20598;-69
2022/01/07 03:36:50;;;;;;;15.83;8.77;;;;;;;-0.74;71.46;99364.50;5026789;28;20186;-69
2022/01/07 03:40:32;;;;;;;13.77;8.43;;;;;;;-1.54;74.75;99355.09;5025593;28;20441;-69
2022/01/07 03:44:13;;;;;;;16.00;7.17;;;;;;;-0.94;75.27;99410.41;5034908;28;20188;-68
2022/01/07 03:47:54;;;;;;;12.83;7.53;;;;;;;0.21;70.99;99377.69;5012278;28;20410;-69
2022/01/07 03:51:34;;;;;;;13.50;9.10;;;;;;;0.92;66.85;99318.00;5030269;28;20668;-69
2022/01/07 03:55:15;;;;;;;10.70;8.53;;;;;;;-0.81;70.82;99329.19;5025938;28;20193;-69
2022/01/07 03:58:56;;;;;;;11.90;7.90;;;;;;;0.59;70.27;99366.13;5023302;28;20188;-69
2022/01/07 04:02:38;;;;;;;14.80;8.63;;;;;;;-0.18;72.69;99383.16;5040377;28;20201;-69
2022/01/07 04:06:20;;;;;;;15.50;8.77;;;;;;;-1.33;73.48;99320.56;5029168;28;20213;-69
2022/01/07 04:10:02;;;;;;;12.33;8.30;;;;;;;-0.87;74.00;99381.03;5025219;28;20181;-69
2022/01/07 04:13:44;;;;;;;10.57;8.30;;;;;;;0.89;68.99;99333.19;5042661;28;20234;-69
2022/01/07 04:17:25;;;;;;;12.33;8.03;;;;;;;-0.74;72.48;99343.53;5041080;28;20180;-69
2022/01/07 04:21:06;;;;;;;11.80;8.73;;;;;;;0.20;69.33;99341.91;5011205;28;20204;-69
2022/01/07 04:24:47;;;;;;;11.07;8.53;;;;;;;2.12;64.34;99270.69;5028580;28;20193;-69
2022/01/07 04:28:28;;;;;;;13.97;9.80;;;;;;;2.68;62.77;99270.28;5028887;28;20186;-70
2022/01/07 04:32:10;;;;;;;15.13;10.17;;;;;;;2.96;61.77;99273.16;5041727;28;20455;-69
2022/01/07 04:35:53;;;;;;;11.27;9.43;;;;;;;2.63;62.48;99271.63;5030104;28;20254;-66
2022/01/07 04:39:34;;;;;;;13.43;9.40;;;;;;;2.20;62.17;99252.47;5026321;28;20201;-70
2022/01/07 04:43:15;;;;;;;15.50;9.67;;;;;;;0.98;68.89;99351.69;5027951;28;20184;-67
2022/01/07 04:46:57;;;;;;;12.97;8.67;;;;;;;0.04;71.31;99371.91;5028373;28;20665;-68
2022/01/07 04:50:38;;;;;;;13.47;9.20;;;;;;;-0.62;71.47;99320.88;5026590;28;20176;-68
2022/01/07 04:54:20;;;;;;;12.40;9.23;;;;;;;0.12;72.09;99378.38;5030711;28;20173;-68
2022/01/07 04:58:01;;;;;;;13.27;9.63;;;;;;;-0.05;72.67;99377.84;5028962;28;20375;-67
2022/01/07 05:00:53;;;;;;;14.60;8.83;;;;;;;-0.13;69.69;99319.91;5030948;28;20217;-66
2022/01/07 05:03:20;;;;;;;15.90;10.37;;;;;;;-0.42;71.69;99341.22;5043871;28;20221;-66
2022/01/07 05:06:01;;;;;;;15.97;9.73;;;;;;;-0.63;73.85;99367.16;5013447;28;20224;-66
2022/01/07 05:08:28;;;;;;;15.23;9.77;;;;;;;0.83;69.58;99324.00;5044433;28;20252;-66
2022/01/07 05:10:55;;;;;;;15.30;9.50;;;;;;;-0.09;71.91;99344.91;5048265;28;20232;-66
2022/01/07 05:13:22;;;;;;;15.23;9.37;;;;;;;1.32;67.85;99306.16;5043482;28;20228;-66
2022/01/07 05:15:49;;;;;;;13.13;8.83;;;;;;;-0.50;71.07;99310.31;5047634;28;20213;-66
2022/01/07 05:18:16;;;;;;;16.80;10.53;;;;;;;-0.19;71.46;99334.31;5048016;28;20221;-66
2022/01/07 05:20:43;;;;;;;16.90;10.30;;;;;;;-1.17;74.89;99313.31;5044380;28;20226;-66
2022/01/07 05:23:10;;;;;;;16.73;9.57;;;;;;;-0.63;73.72;99337.50;5041073;28;20217;-66
2022/01/07 05:25:37;;;;;;;14.83;9.50;;;;;;;-0.56;73.17;99338.75;5045688;28;20770;-66
2022/01/07 05:28:05;;;;;;;13.23;9.27;;;;;;;0.13;73.15;99328.44;5046173;28;20220;-66
2022/01/07 05:30:33;;;;;;;16.73;10.23;;;;;;;-0.02;70.73;99295.47;5046236;28;20226;-66
2022/01/07 05:33:00;;;;;;;16.00;9.77;;;;;;;-0.56;73.92;99328.25;5047455;28;20223;-66
2022/01/07 05:35:29;;;;;;;12.30;8.83;;;;;;;-0.63;73.07;99312.16;5047232;28;20231;-66
2022/01/07 05:37:56;;;;;;;10.30;8.03;;;;;;;-1.16;74.68;99304.53;5044800;28;20305;-66
2022/01/07 05:40:23;;;;;;;9.67;7.77;;;;;;;0.67;69.85;99273.63;5043316;28;20229;-66
2022/01/07 05:42:50;;;;;;;12.70;9.03;;;;;;;1.52;66.35;99234.44;5046620;28;20230;-66
2022/01/07 05:45:17;;;;;;;17.03;9.20;;;;;;;0.63;69.56;99294.88;5045631;28;20646;-66
2022/01/07 05:47:44;;;;;;;14.67;9.53;;;;;;;0.69;69.64;99282.22;5047017;28;20222;-66
2022/01/07 05:50:11;;;;;;;14.50;9.83;;;;;;;1.08;67.91;99265.13;5046178;28;20609;-66
2022/01/07 05:52:38;;;;;;;15.77;9.90;;;;;;;-0.60;69.47;99243.00;5048669;28;20254;-66
2022/01/07 05:55:06;;;;;;;15.63;10.63;;;;;;;-0.40;71.69;99300.00;5060021;28;20217;-66
2022/01/07 05:57:35;;;;;;;13.30;9.10;;;;;;;-1.32;74.78;99290.81;5062405;28;20228;-66
2022/01/07 06:00:09;;;;;;;15.13;10.40;;;;;;;-0.54;73.52;99321.97;5045074;28;20255;-66
2022/01/07 06:02:36;;;;;;;14.03;10.20;;;;;;;-0.43;70.83;99278.44;5046449;28;25432;-66
2022/01/07 06:05:04;;;;;;;17.73;9.57;;;;;;;-1.19;74.47;99283.78;5046508;28;20225;-66
2022/01/07 06:07:31;;;;;;;13.73;9.63;;;;;;;-0.11;73.70;99305.69;5045661;28;20736;-66
2022/01/07 06:09:58;;;;;;;15.27;10.43;;;;;;;-0.79;75.15;99317.66;5045170;28;20307;-66
2022/01/07 06:12:25;;;;;;;13.97;9.80;;;;;;;-0.60;73.85;99306.69;5040843;28;20233;-66
2022/01/07 06:14:51;;;;;;;14.53;10.07;;;;;;;-0.52;71.36;99277.31;5046309;28;20262;-66
2022/01/07 06:17:18;;;;;;;16.57;10.23;;;;;;;0.02;72.67;99292.53;5046615;28;20220;-66
2022/01/07 06:19:45;;;;;;;11.57;9.30;;;;;;;0.14;69.97;99268.97;5038640;28;20511;-66
2022/01/07 06:22:13;;;;;;;17.43;11.50;;;;;;;0.68;69.73;99256.94;5045971;28;20225;-66
2022/01/07 06:24:40;;;;;;;13.60;9.60;;;;;;;1.02;68.55;99249.84;5043689;28;20225;-66
2022/01/07 06:27:07;;;;;;;13.47;10.73;;;;;;;-0.30;72.84;99305.41;5046459;28;20229;-66
2022/01/07 06:29:34;;;;;;;13.57;9.50;;;;;;;1.05;67.60;99231.22;5046310;28;20216;-66
2022/01/07 06:32:02;;;;;;;14.53;10.27;;;;;;;0.59;69.09;99266.38;5042248;28;20237;-66
2022/01/07 06:34:29;;;;;;;13.97;9.67;;;;;;;-0.58;71.66;99296.94;5045583;28;20297;-66
2022/01/07 06:36:58;;;;;;;9.80;7.67;;;;;;;0.92;67.67;99233.97;5046435;28;20251;-66
2022/01/07 06:39:25;;;;;;;15.50;8.90;;;;;;;0.83;68.15;99250.47;5046136;28;20255;-66
2022/01/07 06:41:52;;;;;;;13.87;9.40;;;;;;;0.15;69.37;99270.59;5046256;28;20240;-66
2022/01/07 06:44:18;;;;;;;10.93;8.70;;;;;;;-0.40;71.37;99289.53;5045166;28;20218;-66
2022/01/07 06:46:46;;;;;;;13.97;8.73;;;;;;;0.97;67.26;99252.81;5038210;28;20224;-66
2022/01/07 06:49:16;;;;;;;12.63;8.63;;;;;;;0.04;68.93;99253.91;5046083;28;20230;-66
2022/01/07 06:51:43;;;;;;;13.93;8.10;;;;;;;-1.28;72.09;99259.09;5044822;28;20330;-66
2022/01/07 06:54:11;;;;;;;12.53;7.33;;;;;;;-0.86;69.18;99238.69;5052742;28;20233;-66
2022/01/07 06:56:39;;;;;;;9.90;7.03;;;;;;;-1.25;72.50;99271.13;5052660;28;20278;-66
2022/01/07 06:59:06;;;;;;;8.50;6.70;;;;;;;-0.97;70.13;99251.72;5045637;28;20221;-66
2022/01/07 07:01:34;;;;;;;10.77;8.10;;;;;;;0.55;67.62;99252.63;5050876;28;20236;-66
2022/01/07 07:04:01;;;;;;;10.40;7.67;;;;;;;0.12;70.20;99276.06;5045795;28;20243;-66
2022/01/07 07:06:28;;;;;;;14.87;8.47;;;;;;;0.63;65.98;99225.78;5043655;28;20307;-66
2022/01/07 07:08:55;;;;;;;12.50;8.63;;;;;;;-0.07;67.88;99238.16;5046406;28;20514;-66
2022/01/07 07:11:22;;;;;;;10.40;7.70;;;;;;;0.27;68.42;99259.19;5044701;28;20232;-65
2022/01/07 07:13:49;;;;;;;10.13;7.47;;;;;;;0.69;67.25;99248.94;5036927;28;20229;-66
2022/01/07 07:16:16;;;;;;;11.53;7.40;;;;;;;-0.19;68.98;99279.25;5039572;28;20243;-66
2022/01/07 07:18:43;;;;;;;10.20;7.80;;;;;;;0.85;67.06;99255.63;5038540;28;20657;-65
2022/01/07 07:21:10;;;;;;;9.60;7.50;;;;;;;1.00;66.04;99236.81;5042692;28;20226;-66
2022/01/07 07:23:37;;;;;;;10.63;7.60;;;;;;;-0.45;70.45;99298.69;5038636;28;20631;-65
2022/01/07 07:26:04;;;;;;;12.53;7.80;;;;;;;0.91;66.67;99261.22;5038037;28;20231;-66
2022/01/07 07:28:33;;;;;;;8.67;6.63;;;;;;;-0.44;68.68;99280.22;5034784;28;20228;-65
2022/01/07 07:31:01;;;;;;;10.67;7.33;;;;;;;0.12;65.07;99216.63;5041246;28;20224;-66
2022/01/07 07:33:32;;;;;;;7.83;6.90;;;;;;;0.82;66.04;99249.66;5046839;28;20227;-66
2022/01/07 07:38:45;;;;;;;10.93;6.87;;;;;;;1.47;64.10;99241.84;5048866;28;20651;-66
2022/01/07 07:41:12;;;;;;;11.10;8.57;;;;;;;0.31;66.51;99262.41;5049165;28;20235;-65
2022/01/07 07:43:39;;;;;;;10.67;7.40;;;;;;;-1.00;68.16;99222.31;5048324;28;20222;-66
2022/01/07 07:46:07;;;;;;;12.17;8.43;;;;;;;1.32;64.26;99227.31;5047798;28;20228;-66
2022/01/07 07:48:34;;;;;;;12.07;7.87;;;;;;;0.98;64.91;99222.16;5049186;28;20224;-65
2022/01/07 07:51:01;;;;;;;7.27;5.67;;;;;;;0.48;67.16;99269.00;5048972;28;20239;-66
2022/01/07 07:53:28;;;;;;;10.93;8.20;;;;;;;0.43;64.59;99209.81;5047101;28;20778;-66
2022/01/07 07:55:55;;;;;;;6.97;6.13;;;;;;;-0.66;69.21;99273.06;5039852;28;20221;-65
2022/01/07 07:58:24;;;;;;;10.63;6.30;;;;;;;0.59;66.31;99261.94;5036134;28;20604;-65
2022/01/07 08:00:51;;;;;;;10.67;6.73;;;;;;;0.79;66.30;99246.41;5049335;28;20225;-65
2022/01/07 08:03:21;;;;;;;10.90;7.00;;;;;;;-0.32;65.81;99219.03;5045303;28;20230;-65
2022/01/07 08:05:48;;;;;;;10.13;7.20;;;;;;;-0.14;67.93;99264.00;5048487;28;20254;-65
2022/01/07 08:08:15;;;;;;;13.17;7.67;;;;;;;0.00;68.33;99276.06;5049367;28;20271;-66
2022/01/07 08:10:48;;;;;;;14.40;7.73;;;;;;;0.21;66.10;99246.53;5031468;28;20266;-68
2022/01/07 08:15:58;;;;;;;11.63;7.53;;;;;;;0.43;65.54;99224.72;5041716;28;20236;-68
2022/01/07 08:16:23;;;;;;;9.43;7.07;;;;;;;-0.81;68.19;99227.91;5048304;28;20636;-67
2022/01/07 08:18:55;;;;;;;8.67;6.27;;;;;;;-0.46;67.76;99255.06;5066979;28;20235;-68
2022/01/07 08:21:26;;;;;;;7.07;6.23;;;;;;;0.64;66.11;99251.09;5055663;28;20229;-68
2022/01/07 08:23:54;;;;;;;7.33;5.40;;;;;;;0.59;66.20;99242.75;5048360;28;20608;-68
2022/01/07 08:26:22;;;;;;;8.77;7.03;;;;;;;1.16;64.29;99225.09;5047927;28;20231;-68
2022/01/07 08:28:57;;;;;;;11.00;6.40;;;;;;;-0.58;68.36;99254.19;5048653;28;20308;-67
2022/01/07 08:34:53;;;;;;;9.00;6.23;;;;;;;0.25;66.32;99247.97;5047277;28;20227;-65
2022/01/07 08:36:59;;;;;;;7.83;6.23;;;;;;;-0.78;67.82;99227.66;5047749;28;20255;-65
2022/01/07 08:39:26;;;;;;;10.00;6.90;;;;;;;0.90;65.06;99233.28;5048500;28;20248;-65
2022/01/07 08:41:53;;;;;;;12.67;9.03;;;;;;;0.14;66.47;99243.56;5048192;28;20232;-65
2022/01/07 08:44:22;;;;;;;8.30;6.87;;;;;;;0.67;65.04;99231.63;5047581;28;20236;-64
2022/01/07 08:46:49;;;;;;;9.53;6.90;;;;;;;-0.18;66.99;99249.44;5048223;28;20551;-65
2022/01/07 08:49:16;;;;;;;6.67;4.63;;;;;;;1.05;63.86;99225.97;5048377;28;20596;-65
2022/01/07 08:51:44;;;;;;;9.47;7.00;;;;;;;0.54;65.16;99234.38;5045115;28;20232;-65
2022/01/07 08:54:11;;;;;;;11.13;7.40;;;;;;;1.36;63.26;99220.84;5042667;28;20704;-65
2022/01/07 08:56:38;;;;;;;10.00;6.40;;;;;;;0.59;64.66;99222.59;5047440;28;20228;-65
2022/01/07 08:59:05;;;;;;;8.70;6.30;;;;;;;0.71;64.33;99223.41;5046713;28;20595;-65
2022/01/07 09:01:36;;;;;;;6.63;5.80;;;;;;;0.76;65.03;99244.88;5048043;28;20267;-65
2022/01/07 09:04:03;;;;;;;8.37;5.27;;;;;;;0.81;64.39;99224.34;5048074;28;20233;-65
2022/01/07 09:06:30;;;;;;;7.70;5.93;;;;;;;0.88;63.78;99218.59;5046976;28;20609;-65
2022/01/07 09:08:57;;;;;;;8.60;6.63;;;;;;;1.15;63.70;99231.31;5047864;28;20696;-65
2022/01/07 09:11:24;;;;;;;8.47;6.37;;;;;;;-0.26;64.79;99201.16;5047599;28;20225;-65
2022/01/07 09:13:52;;;;;;;6.67;4.83;;;;;;;0.35;66.16;99242.84;5042322;28;20717;-65
2022/01/07 09:16:21;;;;;;;7.83;5.63;;;;;;;-0.43;67.73;99236.50;5045722;28;20254;-65
2022/01/07 09:18:49;;;;;;;9.57;6.80;;;;;;;0.15;67.90;99270.59;5048157;28;20225;-65
2022/01/07 09:21:17;;;;;;;10.00;6.20;;;;;;;-0.54;70.66;99276.56;5045984;28;20622;-65
2022/01/07 09:23:44;;;;;;;11.20;6.60;;;;;;;-0.24;69.88;99270.03;5047207;28;20223;-65
2022/01/07 09:26:11;;;;;;;5.20;4.67;;;;;;;-1.14;70.86;99211.00;5047437;28;20213;-65
2022/01/07 09:28:38;;;;;;;9.17;6.60;;;;;;;-0.03;70.97;99286.78;5046863;28;20237;-65
2022/01/07 09:31:05;;;;;;;9.97;7.00;;;;;;;0.66;68.47;99250.94;5047672;28;20634;-65
2022/01/07 09:33:32;;;;;;;6.00;5.40;;;;;;;0.80;67.69;99238.41;5046801;28;20219;-65
2022/01/07 09:36:19;;;;;;;10.37;8.00;;;;;;;0.89;68.56;99260.50;5029534;28;20222;-65
2022/01/07 09:38:46;;;;;;;10.90;7.50;;;;;;;0.53;68.67;99249.28;5039146;28;20231;-65
2022/01/07 09:41:13;;;;;;;8.33;6.50;;;;;;;-0.13;73.20;99304.16;5043741;28;20226;-63
2022/01/07 09:43:45;;;;;;;9.80;6.73;;;;;;;0.45;71.69;99280.53;5065774;28;20232;-65
2022/01/07 09:46:14;;;;;;;10.40;7.07;;;;;;;-0.74;72.13;99250.06;5043163;28;20588;-65
2022/01/07 09:48:42;;;;;;;9.33;6.47;;;;;;;0.18;71.45;99257.25;5045724;28;20321;-65
2022/01/07 09:51:13;;;;;;;7.67;4.73;;;;;;;0.20;71.30;99271.94;5047013;28;20235;-65
2022/01/07 09:53:41;;;;;;;10.97;7.73;;;;;;;-1.08;72.79;99210.59;5043337;28;20229;-65
2022/01/07 09:56:08;;;;;;;8.80;6.33;;;;;;;-1.46;72.91;99147.91;5038169;28;20227;-65
2022/01/07 09:58:35;;;;;;;9.07;7.70;;;;;;;-0.17;71.52;99232.78;5034042;28;20643;-65
2022/01/07 10:01:05;;;;;;;10.70;7.90;;;;;;;-0.17;73.88;99273.88;5036812;28;20225;-65
2022/01/07 10:03:41;;;;;;;12.53;8.03;;;;;;;0.57;71.09;99236.75;5047592;28;20235;-65
2022/01/07 10:06:18;;;;;;;12.10;7.77;;;;;;;1.22;69.02;99219.34;5035559;28;20720;-65
2022/01/07 10:08:58;;;;;;;7.73;4.93;;;;;;;0.94;68.83;99203.19;5038943;28;20464;-65
2022/01/07 10:11:25;;;;;;;9.20;6.93;;;;;;;-0.73;73.08;99216.84;5042588;28;20231;-65
2022/01/07 10:14:17;;;;;;;12.90;8.17;;;;;;;0.44;71.27;99224.59;5048705;28;20223;-65
2022/01/07 10:16:48;;;;;;;11.57;8.37;;;;;;;-0.06;72.37;99234.56;5042215;28;20238;-65
2022/01/07 10:19:31;;;;;;;12.27;6.90;;;;;;;0.79;69.96;99205.25;5040639;28;20233;-65
2022/01/07 10:22:04;;;;;;;12.20;7.77;;;;;;;1.30;68.77;99202.97;5039790;28;20707;-65
2022/01/07 10:24:31;;;;;;;11.97;7.23;;;;;;;-0.60;74.14;99240.38;5038547;28;20597;-65
2022/01/07 10:27:13;;;;;;;10.73;7.50;;;;;;;-0.93;74.55;99229.63;5037967;28;20263;-65
2022/01/07 10:29:43;;;;;;;4.83;4.40;;;;;;;0.64;70.02;99206.47;5037903;28;20225;-66
2022/01/07 10:32:23;;;;;;;14.73;8.03;;;;;;;0.41;72.80;99237.13;5038175;28;20749;-65
2022/01/07 10:35:04;;;;;;;16.63;7.63;;;;;;;0.73;70.92;99205.72;5038470;28;20227;-65
2022/01/07 10:37:31;;;;;;;9.97;7.53;;;;;;;0.62;70.59;99209.22;5036341;28;21597;-65
2022/01/07 10:39:57;;;;;;;11.17;7.87;;;;;;;1.76;66.86;99165.00;5040084;28;20221;-65
2022/01/07 10:42:26;;;;;;;9.43;6.80;;;;;;;0.07;72.30;99221.38;5042051;28;20221;-65
2022/01/07 10:45:04;;;;;;;10.93;7.77;;;;;;;1.52;67.78;99171.34;5037884;28;20251;-65
2022/01/07 10:47:32;;;;;;;7.47;5.53;;;;;;;1.22;67.67;99147.56;5040270;28;20582;-65
2022/01/07 10:50:23;;;;;;;13.63;7.03;;;;;;;1.15;67.47;99142.00;5037911;28;20221;-66
2022/01/07 10:52:51;;;;;;;10.63;6.70;;;;;;;0.40;68.32;99149.72;5033872;28;20454;-65
2022/01/07 10:55:21;;;;;;;11.27;6.23;;;;;;;0.86;70.42;99187.22;5039013;28;20446;-66
2022/01/07 10:57:50;;;;;;;8.73;6.93;;;;;;;0.69;68.56;99143.94;5034846;28;20213;-65
2022/01/07 11:03:50;;;;;;;6.43;5.33;;;;;;;-2.06;77.45;99136.41;5022862;28;20574;-67
2022/01/07 11:06:17;;;;;;;10.10;7.40;;;;;;;-0.77;75.62;99189.22;5002259;28;20224;-65
2022/01/07 11:08:47;;;;;;;11.43;7.63;;;;;;;-0.14;73.40;99168.78;5028277;28;20226;-67
2022/01/07 11:11:14;;;;;;;8.33;6.37;;;;;;;-1.52;77.26;99159.66;5023166;28;20227;-67
2022/01/07 11:13:42;;;;;;;14.17;8.10;;;;;;;-0.69;74.14;99132.69;5020925;28;20655;-67
2022/01/07 11:16:09;;;;;;;12.37;7.97;;;;;;;-0.57;75.21;99169.41;5022798;28;20231;-67
2022/01/07 11:18:38;;;;;;;11.53;6.70;;;;;;;-1.12;75.28;99146.28;5021578;28;20723;-67
2022/01/07 11:21:06;;;;;;;9.43;4.97;;;;;;;-0.22;74.20;99158.03;5022370;28;20527;-67
2022/01/07 11:23:37;;;;;;;12.67;6.73;;;;;;;0.25;72.68;99140.41;5022235;28;20241;-67
2022/01/07 11:26:08;;;;;;;11.33;8.40;;;;;;;0.76;71.02;99131.97;5021456;28;20239;-67
2022/01/07 11:28:38;;;;;;;11.00;7.93;;;;;;;0.30;73.31;99159.25;5022082;28;20226;-67
2022/01/07 11:31:14;;;;;;;9.73;7.33;;;;;;;0.66;71.43;99128.44;5022439;28;20231;-67
2022/01/07 11:33:41;;;;;;;8.40;6.67;;;;;;;0.94;69.91;99106.03;5022253;28;20273;-67
2022/01/07 11:36:32;;;;;;;9.80;7.30;;;;;;;1.29;69.49;99117.19;5022974;28;20737;-67
2022/01/07 11:39:04;;;;;;;11.17;7.80;;;;;;;1.27;69.20;99106.00;5020389;28;20227;-67
2022/01/07 11:41:50;;;;;;;8.77;7.03;;;;;;;0.85;70.05;99098.06;5020471;28;20243;-67
2022/01/07 11:44:28;;;;;;;12.33;6.87;;;;;;;0.26;72.04;99123.72;5020755;28;20219;-66
2022/01/07 11:47:19;;;;;;;12.00;6.80;;;;;;;0.60;71.53;99111.38;5018904;28;20519;-67
2022/01/07 11:49:59;;;;;;;9.43;6.37;;;;;;;0.39;71.26;99108.69;4143703;28;10000633;-67
2022/01/07 11:52:37;;;;;;;11.27;7.40;;;;;;;1.23;69.65;99099.31;4143417;28;10000820;-67
2022/01/07 11:55:23;;;;;;;10.63;6.80;;;;;;;0.19;73.57;99136.50;5022100;28;20722;-67
2022/01/07 11:57:57;;;;;;;9.10;6.40;;;;;;;0.86;70.90;99103.19;5020285;28;20232;-67
2022/01/07 12:00:59;;;;;;;8.73;6.30;;;;;;;0.97;70.86;99102.31;5027993;28;20244;-66
2022/01/07 12:03:34;;;;;;;8.50;5.83;;;;;;;0.16;71.46;99102.63;5028506;28;20238;-66
2022/01/07 12:06:21;;;;;;;9.37;5.23;;;;;;;0.47;73.24;99133.47;5029917;28;20221;-67
2022/01/07 12:09:16;;;;;;;7.00;4.50;;;;;;;-0.16;72.10;99094.66;5032997;28;20341;-66
2022/01/07 12:11:52;;;;;;;10.40;6.47;;;;;;;0.83;70.33;99085.06;5028173;28;20227;-66
2022/01/07 12:14:24;;;;;;;6.93;5.70;;;;;;;0.17;73.38;99129.72;5018776;28;20220;-66
2022/01/07 12:16:59;;;;;;;6.67;5.00;;;;;;;-0.59;75.83;99132.84;5018549;28;20226;-66
2022/01/07 12:19:35;;;;;;;5.60;4.40;;;;;;;-0.13;73.82;99099.66;5021108;28;20222;-66
2022/01/07 12:22:11;;;;;;;8.50;5.50;;;;;;;0.54;73.63;99117.13;5005590;28;20240;-66
2022/01/07 12:24:38;;;;;;;7.20;4.90;;;;;;;-0.65;76.87;99143.78;5008478;28;20230;-66
2022/01/07 12:27:06;;;;;;;5.07;4.30;;;;;;;0.25;73.43;99094.03;5007110;28;20223;-66
2022/01/07 12:29:41;;;;;;;7.97;5.40;;;;;;;-0.16;74.78;99102.53;5023302;28;20226;-66
2022/01/07 12:32:11;;;;;;;9.30;6.10;;;;;;;0.02;73.79;99081.91;5010893;28;20667;-67
2022/01/07 12:34:40;;;;;;;5.70;5.03;;;;;;;0.08;75.04;99103.25;5005783;28;20231;-67
2022/01/07 12:37:10;;;;;;;8.07;6.17;;;;;;;0.23;75.22;99095.97;5006511;28;20234;-67
2022/01/07 12:39:39;;;;;;;6.77;4.40;;;;;;;-0.20;77.57;99116.84;5008168;28;20245;-66
2022/01/07 12:42:09;;;;;;;10.30;6.17;;;;;;;0.56;74.00;99082.88;5006517;28;20235;-67
2022/01/07 12:44:38;;;;;;;7.17;4.67;;;;;;;-0.06;73.45;99050.22;5024035;28;20237;-66
2022/01/07 12:47:06;;;;;;;9.23;4.87;;;;;;;0.65;73.41;99079.50;5011730;28;20598;-66
2022/01/07 12:49:36;;;;;;;10.87;5.63;;;;;;;-0.65;77.38;99104.47;5014709;28;20225;-66
2022/01/07 12:52:06;;;;;;;8.40;5.40;;;;;;;-0.16;77.18;99098.09;5014638;28;20238;-67
2022/01/07 12:54:34;;;;;;;6.20;4.77;;;;;;;0.31;75.36;99073.53;5018308;28;20220;-66
2022/01/07 12:57:02;;;;;;;10.03;5.53;;;;;;;0.67;73.69;99053.13;5018830;28;20226;-66
2022/01/07 12:59:29;;;;;;;5.30;4.13;;;;;;;0.71;73.25;99060.63;5018586;28;20230;-66
2022/01/07 13:01:56;;;;;;;7.77;5.30;;;;;;;0.34;75.73;99078.53;5009128;28;20260;-67
2022/01/07 13:04:25;;;;;;;9.43;5.90;;;;;;;0.22;75.25;99064.59;5015801;28;20228;-66
2022/01/07 13:06:54;;;;;;;8.03;4.80;;;;;;;-0.96;77.77;99074.53;5006921;28;20229;-67
2022/01/07 13:09:29;;;;;;;7.17;5.20;;;;;;;-0.35;76.21;99079.53;5008173;28;20725;-67
2022/01/07 13:11:59;;;;;;;7.87;5.70;;;;;;;0.77;73.75;99069.78;5007049;28;20231;-67
2022/01/07 13:14:27;;;;;;;5.53;4.70;;;;;;;0.43;75.02;99075.97;5003603;28;20740;-67
2022/01/07 13:16:57;;;;;;;8.97;5.80;;;;;;;0.39;73.29;99050.13;5022189;28;20219;-67
2022/01/07 13:19:25;;;;;;;11.73;5.27;;;;;;;0.22;75.52;99068.06;5034358;28;20234;-68
2022/01/07 13:21:53;;;;;;;7.43;4.87;;;;;;;0.07;75.39;99056.97;5019848;28;20234;-68
2022/01/07 13:24:25;;;;;;;7.80;5.00;;;;;;;0.15;76.19;99063.41;5021569;28;20225;-68
2022/01/07 13:26:56;;;;;;;8.60;5.07;;;;;;;0.88;72.31;99037.41;5007189;28;20608;-67
2022/01/07 13:29:25;;;;;;;7.33;5.13;;;;;;;1.02;72.31;99047.59;5007521;28;20366;-68
2022/01/07 13:32:00;;;;;;;5.97;4.17;;;;;;;-0.64;77.46;99082.59;5010127;28;20245;-68
2022/01/07 13:34:30;;;;;;;11.97;5.77;;;;;;;1.08;73.41;99054.97;5006746;28;20228;-67
2022/01/07 13:37:03;;;;;;;10.50;5.90;;;;;;;0.85;73.42;99040.28;5007372;28;20231;-68
2022/01/07 13:39:45;;;;;;;5.03;3.60;;;;;;;0.56;74.61;99057.47;5007868;28;20223;-69
2022/01/07 13:42:18;;;;;;;12.37;5.57;;;;;;;1.59;70.73;99036.75;5006111;28;20234;-69
2022/01/07 13:45:03;;;;;;;7.70;5.20;;;;;;;1.08;72.17;99043.63;5005458;28;20836;-68
2022/01/07 13:47:33;;;;;;;6.30;5.10;;;;;;;-0.18;76.82;99100.00;5006862;28;20223;-71
2022/01/07 13:50:27;;;;;;;8.87;5.10;;;;;;;0.46;75.68;99074.91;5006956;28;20232;-68
2022/01/07 13:52:54;;;;;;;6.67;4.67;;;;;;;-0.31;75.10;99046.88;5005084;28;20258;-69
2022/01/07 13:55:27;;;;;;;7.97;5.10;;;;;;;-0.03;76.22;99074.41;5007477;28;20231;-70
2022/01/07 13:58:26;;;;;;;6.40;5.20;;;;;;;0.20;75.51;99063.88;5007457;28;20777;-68
2022/01/07 14:01:03;;;;;;;8.03;4.97;;;;;;;-1.27;79.56;99051.44;5009847;28;20544;-68
2022/01/07 14:03:49;;;;;;;7.30;5.13;;;;;;;0.86;73.89;99036.69;5019673;28;20228;-68
2022/01/07 14:06:21;;;;;;;6.07;4.93;;;;;;;0.93;73.14;99020.31;5016339;28;20226;-68
2022/01/07 14:08:48;;;;;;;9.63;4.87;;;;;;;-0.26;77.39;99055.22;5013653;28;20232;-68
2022/01/07 14:11:17;;;;;;;7.23;4.70;;;;;;;-0.42;77.44;99055.59;5015357;28;20228;-68
2022/01/07 14:13:44;;;;;;;7.40;4.77;;;;;;;0.91;73.44;99016.13;5018810;28;20235;-68
2022/01/07 14:16:22;;;;;;;7.70;4.83;;;;;;;-0.31;77.37;99060.84;5013954;28;20238;-68
2022/01/07 14:18:59;;;;;;;12.87;5.03;;;;;;;0.33;74.52;99030.44;5016695;28;20605;-68
2022/01/07 14:21:26;;;;;;;11.60;5.30;;;;;;;1.08;72.30;99019.97;5007585;28;20770;-68
2022/01/07 14:23:55;;;;;;;8.00;5.23;;;;;;;0.45;75.17;99047.84;5006630;28;20218;-68
2022/01/07 14:26:25;;;;;;;5.87;4.63;;;;;;;1.18;71.14;99016.47;5006213;28;20223;-68
2022/01/07 14:28:57;;;;;;;6.03;4.83;;;;;;;1.02;71.87;99022.16;5007215;28;20237;-69
2022/01/07 14:31:44;;;;;;;5.50;4.60;;;;;;;1.45;70.27;99023.00;5009571;28;20242;-76
2022/01/07 14:34:11;;;;;;;6.17;4.50;;;;;;;0.48;70.10;98996.91;5009631;28;20488;-73
2022/01/07 14:36:38;;;;;;;5.83;4.00;;;;;;;0.20;73.94;99048.97;5013309;28;20238;-70
2022/01/07 14:39:05;;;;;;;5.93;4.70;;;;;;;1.49;70.07;99023.56;4989689;28;20251;-72
2022/01/07 14:41:32;;;;;;;6.30;5.30;;;;;;;0.78;72.88;99045.22;5014701;28;20231;-73
2022/01/07 14:43:59;;;;;;;7.27;4.53;;;;;;;0.24;71.70;99013.66;5014244;28;20232;-69
2022/01/07 14:46:46;;;;;;;5.43;4.30;;;;;;;0.13;72.09;99012.88;4990760;28;20773;-67
2022/01/07 14:49:13;;;;;;;9.00;4.43;;;;;;;1.85;68.75;99021.34;4998920;28;20250;-69